sensor_id;sensor_type;location;lat;lon;timestamp;pressure;altitude;pressure_sealevel;temperature;humidity
80186;BME280;69904;52.122;5.422;2024-01-15T00:01:36;100368.34;;;1.50;92.95
80186;BME280;69904;52.122;5.422;2024-01-15T00:04:03;100363.50;;;1.46;92.99
80186;BME280;69904;52.122;5.422;2024-01-15T00:06:30;100359.47;;;1.42;93.08
80186;BME280;69904;52.122;5.422;2024-01-15T00:08:59;100362.03;;;1.34;93.03
80186;BME280;69904;52.122;5.422;2024-01-15T00:11:25;100356.19;;;1.30;92.92
80186;BME280;69904;52.122;5.422;2024-01-15T00:13:52;100356.19;;;1.30;92.99
80186;BME280;69904;52.122;5.422;2024-01-15T00:16:18;100347.13;;;1.23;93.14
80186;BME280;69904;52.122;5.422;2024-01-15T00:18:45;100351.91;;;1.19;92.91
80186;BME280;69904;52.122;5.422;2024-01-15T00:21:11;100349.41;;;1.18;93.20
80186;BME280;69904;52.122;5.422;2024-01-15T00:23:42;100349.56;;;1.16;93.05
80186;BME280;69904;52.122;5.422;2024-01-15T00:26:08;100339.38;;;1.12;92.63
80186;BME280;69904;52.122;5.422;2024-01-15T00:28:37;100328.06;;;1.10;92.82
80186;BME280;69904;52.122;5.422;2024-01-15T00:31:04;100338.31;;;1.05;92.83
80186;BME280;69904;52.122;5.422;2024-01-15T00:33:31;100329.63;;;1.03;92.92
80186;BME280;69904;52.122;5.422;2024-01-15T00:35:58;100334.28;;;1.01;92.58
80186;BME280;69904;52.122;5.422;2024-01-15T00:38:24;100329.41;;;0.96;92.82
80186;BME280;69904;52.122;5.422;2024-01-15T00:40:51;100323.09;;;0.97;93.28
80186;BME280;69904;52.122;5.422;2024-01-15T00:43:17;100330.22;;;0.97;92.81
80186;BME280;69904;52.122;5.422;2024-01-15T00:45:45;100321.44;;;0.96;92.80
80186;BME280;69904;52.122;5.422;2024-01-15T00:48:12;100317.13;;;0.95;92.86
80186;BME280;69904;52.122;5.422;2024-01-15T00:50:39;100312.78;;;0.94;92.65
80186;BME280;69904;52.122;5.422;2024-01-15T00:53:05;100302.28;;;0.93;92.66
80186;BME280;69904;52.122;5.422;2024-01-15T00:55:31;100304.28;;;0.91;92.86
80186;BME280;69904;52.122;5.422;2024-01-15T00:57:58;100299.78;;;0.91;92.40
80186;BME280;69904;52.122;5.422;2024-01-15T01:00:24;100300.19;;;0.96;92.44
80186;BME280;69904;52.122;5.422;2024-01-15T01:02:51;100308.31;;;0.95;92.50
80186;BME280;69904;52.122;5.422;2024-01-15T01:05:17;100302.84;;;0.96;92.42
80186;BME280;69904;52.122;5.422;2024-01-15T01:07:44;100298.13;;;0.90;92.43
80186;BME280;69904;52.122;5.422;2024-01-15T01:10:10;100297.28;;;0.90;92.21
80186;BME280;69904;52.122;5.422;2024-01-15T01:12:37;100292.25;;;0.87;92.30
80186;BME280;69904;52.122;5.422;2024-01-15T01:15:04;100295.09;;;0.85;92.24
80186;BME280;69904;52.122;5.422;2024-01-15T01:17:30;100280.25;;;0.82;92.13
80186;BME280;69904;52.122;5.422;2024-01-15T01:19:57;100283.22;;;0.79;92.33
80186;BME280;69904;52.122;5.422;2024-01-15T01:22:24;100281.84;;;0.75;92.17
80186;BME280;69904;52.122;5.422;2024-01-15T01:24:51;100273.72;;;0.77;92.03
80186;BME280;69904;52.122;5.422;2024-01-15T01:27:17;100285.50;;;0.74;92.04
80186;BME280;69904;52.122;5.422;2024-01-15T01:29:44;100280.84;;;0.76;92.04
80186;BME280;69904;52.122;5.422;2024-01-15T01:32:10;100284.47;;;0.85;91.87
80186;BME280;69904;52.122;5.422;2024-01-15T01:34:40;100288.63;;;0.88;91.73
80186;BME280;69904;52.122;5.422;2024-01-15T01:37:11;100296.97;;;0.93;91.72
80186;BME280;69904;52.122;5.422;2024-01-15T01:39:41;100294.19;;;0.94;91.45
80186;BME280;69904;52.122;5.422;2024-01-15T01:42:08;100297.38;;;0.98;91.49
80186;BME280;69904;52.122;5.422;2024-01-15T01:44:34;100298.06;;;1.00;91.13
80186;BME280;69904;52.122;5.422;2024-01-15T01:47:01;100289.94;;;1.01;91.11
80186;BME280;69904;52.122;5.422;2024-01-15T01:49:29;100290.75;;;1.02;90.87
80186;BME280;69904;52.122;5.422;2024-01-15T01:51:57;100287.13;;;1.03;90.96
80186;BME280;69904;52.122;5.422;2024-01-15T01:54:25;100288.94;;;1.02;90.83
80186;BME280;69904;52.122;5.422;2024-01-15T01:56:53;100288.81;;;1.04;90.72
80186;BME280;69904;52.122;5.422;2024-01-15T01:59:20;100289.63;;;1.04;90.55
80186;BME280;69904;52.122;5.422;2024-01-15T02:01:48;100283.03;;;1.08;90.66
80186;BME280;69904;52.122;5.422;2024-01-15T02:04:15;100288.72;;;1.13;90.49
80186;BME280;69904;52.122;5.422;2024-01-15T02:06:48;100282.81;;;1.19;90.51
80186;BME280;69904;52.122;5.422;2024-01-15T02:09:15;100284.34;;;1.22;90.38
80186;BME280;69904;52.122;5.422;2024-01-15T02:11:42;100296.03;;;1.29;90.42
80186;BME280;69904;52.122;5.422;2024-01-15T02:14:09;100319.06;;;1.38;90.20
80186;BME280;69904;52.122;5.422;2024-01-15T02:16:36;100326.25;;;1.46;90.30
80186;BME280;69904;52.122;5.422;2024-01-15T02:19:02;100317.16;;;1.48;90.44
80186;BME280;69904;52.122;5.422;2024-01-15T02:21:29;100310.31;;;1.46;90.50
80186;BME280;69904;52.122;5.422;2024-01-15T02:23:58;100311.00;;;1.48;90.66
80186;BME280;69904;52.122;5.422;2024-01-15T02:26:24;100301.22;;;1.48;91.13
80186;BME280;69904;52.122;5.422;2024-01-15T02:28:51;100299.00;;;1.44;91.14
80186;BME280;69904;52.122;5.422;2024-01-15T02:31:17;100303.63;;;1.42;91.29
80186;BME280;69904;52.122;5.422;2024-01-15T02:33:44;100296.63;;;1.41;91.39
80186;BME280;69904;52.122;5.422;2024-01-15T02:36:12;100299.00;;;1.44;91.47
80186;BME280;69904;52.122;5.422;2024-01-15T02:38:39;100295.34;;;1.45;91.66
80186;BME280;69904;52.122;5.422;2024-01-15T02:41:05;100292.16;;;1.41;91.57
80186;BME280;69904;52.122;5.422;2024-01-15T02:43:32;100287.69;;;1.42;91.47
80186;BME280;69904;52.122;5.422;2024-01-15T02:45:58;100293.13;;;1.40;91.43
80186;BME280;69904;52.122;5.422;2024-01-15T02:48:25;100292.47;;;1.38;91.67
80186;BME280;69904;52.122;5.422;2024-01-15T02:50:51;100281.28;;;1.35;91.73
80186;BME280;69904;52.122;5.422;2024-01-15T02:53:18;100278.81;;;1.33;91.92
80186;BME280;69904;52.122;5.422;2024-01-15T02:55:45;100282.28;;;1.34;91.93
80186;BME280;69904;52.122;5.422;2024-01-15T02:58:11;100285.63;;;1.36;91.98
80186;BME280;69904;52.122;5.422;2024-01-15T03:00:38;100277.50;;;1.37;92.12
80186;BME280;69904;52.122;5.422;2024-01-15T03:03:06;100284.66;;;1.37;92.17
80186;BME280;69904;52.122;5.422;2024-01-15T03:05:32;100280.31;;;1.36;92.21
80186;BME280;69904;52.122;5.422;2024-01-15T03:07:59;100282.28;;;1.34;92.28
80186;BME280;69904;52.122;5.422;2024-01-15T03:10:25;100279.78;;;1.32;92.29
80186;BME280;69904;52.122;5.422;2024-01-15T03:12:52;100281.09;;;1.28;92.39
80186;BME280;69904;52.122;5.422;2024-01-15T03:15:18;100274.38;;;1.24;92.41
80186;BME280;69904;52.122;5.422;2024-01-15T03:17:45;100279.78;;;1.14;92.48
80186;BME280;69904;52.122;5.422;2024-01-15T03:20:12;100271.41;;;1.09;92.56
80186;BME280;69904;52.122;5.422;2024-01-15T03:22:38;100284.47;;;1.03;92.72
80186;BME280;69904;52.122;5.422;2024-01-15T03:25:06;100282.25;;;0.98;92.94
80186;BME280;69904;52.122;5.422;2024-01-15T03:27:33;100272.22;;;0.92;93.72
80186;BME280;69904;52.122;5.422;2024-01-15T03:29:59;100275.47;;;0.86;92.97
80186;BME280;69904;52.122;5.422;2024-01-15T03:32:26;100279.81;;;0.87;93.16
80186;BME280;69904;52.122;5.422;2024-01-15T03:34:52;100281.34;;;0.90;93.25
80186;BME280;69904;52.122;5.422;2024-01-15T03:37:19;100280.75;;;0.96;93.47
80186;BME280;69904;52.122;5.422;2024-01-15T03:39:46;100286.16;;;1.04;93.35
80186;BME280;69904;52.122;5.422;2024-01-15T03:42:12;100284.72;;;1.09;93.40
80186;BME280;69904;52.122;5.422;2024-01-15T03:44:40;100291.94;;;1.17;93.32
80186;BME280;69904;52.122;5.422;2024-01-15T03:47:07;100307.44;;;1.21;93.57
80186;BME280;69904;52.122;5.422;2024-01-15T03:49:33;100292.31;;;1.22;93.47
80186;BME280;69904;52.122;5.422;2024-01-15T03:52:00;100281.69;;;1.22;93.47
80186;BME280;69904;52.122;5.422;2024-01-15T03:54:26;100285.31;;;1.21;93.43
80186;BME280;69904;52.122;5.422;2024-01-15T03:56:53;100272.50;;;1.16;93.25
80186;BME280;69904;52.122;5.422;2024-01-15T03:59:19;100265.25;;;1.09;93.17
80186;BME280;69904;52.122;5.422;2024-01-15T04:01:49;100259.28;;;1.07;93.20
80186;BME280;69904;52.122;5.422;2024-01-15T04:04:17;100252.19;;;0.98;93.36
80186;BME280;69904;52.122;5.422;2024-01-15T04:06:44;100251.28;;;0.89;93.41
80186;BME280;69904;52.122;5.422;2024-01-15T04:09:12;100250.59;;;0.87;93.55
80186;BME280;69904;52.122;5.422;2024-01-15T04:11:39;100239.91;;;0.79;93.78
80186;BME280;69904;52.122;5.422;2024-01-15T04:14:06;100237.84;;;0.73;93.69
80186;BME280;69904;52.122;5.422;2024-01-15T04:16:32;100224.84;;;0.70;93.81
80186;BME280;69904;52.122;5.422;2024-01-15T04:18:59;100238.28;;;0.68;93.57
80186;BME280;69904;52.122;5.422;2024-01-15T04:21:25;100235.78;;;0.67;94.20
80186;BME280;69904;52.122;5.422;2024-01-15T04:23:52;100232.81;;;0.70;94.14
80186;BME280;69904;52.122;5.422;2024-01-15T04:26:18;100234.78;;;0.68;94.39
80186;BME280;69904;52.122;5.422;2024-01-15T04:28:45;100231.31;;;0.67;94.39
80186;BME280;69904;52.122;5.422;2024-01-15T04:31:21;100231.16;;;0.69;94.54
80186;BME280;69904;52.122;5.422;2024-01-15T04:33:47;100226.13;;;0.66;94.61
80186;BME280;69904;52.122;5.422;2024-01-15T04:36:14;100227.94;;;0.65;94.69
80186;BME280;69904;52.122;5.422;2024-01-15T04:38:40;100214.00;;;0.63;94.73
80186;BME280;69904;52.122;5.422;2024-01-15T04:41:13;100224.75;;;0.62;94.71
80186;BME280;69904;52.122;5.422;2024-01-15T04:43:40;100217.78;;;0.61;94.97
80186;BME280;69904;52.122;5.422;2024-01-15T04:46:06;100213.16;;;0.63;95.03
80186;BME280;69904;52.122;5.422;2024-01-15T04:48:33;100208.84;;;0.62;94.90
80186;BME280;69904;52.122;5.422;2024-01-15T04:51:00;100199.06;;;0.62;94.90
80186;BME280;69904;52.122;5.422;2024-01-15T04:53:27;100202.53;;;0.63;94.90
80186;BME280;69904;52.122;5.422;2024-01-15T04:55:53;100201.84;;;0.61;94.99
80186;BME280;69904;52.122;5.422;2024-01-15T04:58:20;100208.69;;;0.63;94.87
80186;BME280;69904;52.122;5.422;2024-01-15T05:00:46;100211.56;;;0.70;95.12
80186;BME280;69904;52.122;5.422;2024-01-15T05:03:13;100216.84;;;0.79;95.08
80186;BME280;69904;52.122;5.422;2024-01-15T05:05:39;100207.25;;;0.87;95.08
80186;BME280;69904;52.122;5.422;2024-01-15T05:08:06;100208.66;;;0.91;95.46
80186;BME280;69904;52.122;5.422;2024-01-15T05:10:32;100209.16;;;0.94;94.94
80186;BME280;69904;52.122;5.422;2024-01-15T05:12:58;100210.16;;;0.93;94.87
80186;BME280;69904;52.122;5.422;2024-01-15T05:15:25;100199.84;;;0.90;94.83
80186;BME280;69904;52.122;5.422;2024-01-15T05:17:51;100205.28;;;0.89;94.79
80186;BME280;69904;52.122;5.422;2024-01-15T05:20:18;100194.66;;;0.89;94.46
80186;BME280;69904;52.122;5.422;2024-01-15T05:22:44;100183.53;;;0.85;94.57
80186;BME280;69904;52.122;5.422;2024-01-15T05:25:11;100191.63;;;0.83;94.72
80186;BME280;69904;52.122;5.422;2024-01-15T05:27:37;100194.44;;;0.82;94.74
80186;BME280;69904;52.122;5.422;2024-01-15T05:30:04;100198.06;;;0.81;94.86
80186;BME280;69904;52.122;5.422;2024-01-15T05:32:31;100196.25;;;0.81;94.86
80186;BME280;69904;52.122;5.422;2024-01-15T05:34:58;100195.59;;;0.79;95.02
80186;BME280;69904;52.122;5.422;2024-01-15T05:37:25;100196.56;;;0.78;95.13
80186;BME280;69904;52.122;5.422;2024-01-15T05:39:51;100195.72;;;0.78;94.86
80186;BME280;69904;52.122;5.422;2024-01-15T05:42:18;100206.72;;;0.83;95.10
80186;BME280;69904;52.122;5.422;2024-01-15T05:44:44;100205.28;;;0.89;95.30
80186;BME280;69904;52.122;5.422;2024-01-15T05:47:11;100200.13;;;0.87;95.13
80186;BME280;69904;52.122;5.422;2024-01-15T05:49:37;100206.97;;;0.90;95.23
80186;BME280;69904;52.122;5.422;2024-01-15T05:52:04;100207.03;;;0.98;95.28
80186;BME280;69904;52.122;5.422;2024-01-15T05:54:31;100196.13;;;1.01;95.22
80186;BME280;69904;52.122;5.422;2024-01-15T05:56:57;100201.25;;;1.02;95.20
80186;BME280;69904;52.122;5.422;2024-01-15T05:59:24;100214.03;;;1.16;95.16
80186;BME280;69904;52.122;5.422;2024-01-15T06:01:51;100209.56;;;1.17;95.36
80186;BME280;69904;52.122;5.422;2024-01-15T06:04:18;100214.88;;;1.17;95.22
80186;BME280;69904;52.122;5.422;2024-01-15T06:06:45;100202.56;;;1.16;95.17
80186;BME280;69904;52.122;5.422;2024-01-15T06:09:11;100213.19;;;1.16;95.12
80186;BME280;69904;52.122;5.422;2024-01-15T06:11:38;100226.16;;;1.19;95.07
80186;BME280;69904;52.122;5.422;2024-01-15T06:14:04;100227.16;;;1.18;95.23
80186;BME280;69904;52.122;5.422;2024-01-15T06:16:31;100216.00;;;1.14;95.13
80186;BME280;69904;52.122;5.422;2024-01-15T06:18:57;100201.25;;;1.02;94.72
80186;BME280;69904;52.122;5.422;2024-01-15T06:21:24;100198.53;;;0.94;94.79
80186;BME280;69904;52.122;5.422;2024-01-15T06:23:51;100197.56;;;0.95;94.64
80186;BME280;69904;52.122;5.422;2024-01-15T06:26:17;100192.25;;;0.95;94.52
80186;BME280;69904;52.122;5.422;2024-01-15T06:28:43;100199.16;;;0.88;94.61
80186;BME280;69904;52.122;5.422;2024-01-15T06:31:10;100195.97;;;0.84;94.70
80186;BME280;69904;52.122;5.422;2024-01-15T06:33:37;100191.63;;;0.83;94.74
80186;BME280;69904;52.122;5.422;2024-01-15T06:36:05;100204.22;;;0.81;94.69
80186;BME280;69904;52.122;5.422;2024-01-15T06:38:32;100193.59;;;0.81;94.88
80186;BME280;69904;52.122;5.422;2024-01-15T06:40:58;100198.06;;;0.81;94.34
80186;BME280;69904;52.122;5.422;2024-01-15T06:43:25;100189.44;;;0.79;94.76
80186;BME280;69904;52.122;5.422;2024-01-15T06:45:51;100189.19;;;0.72;95.04
80186;BME280;69904;52.122;5.422;2024-01-15T06:48:18;100188.28;;;0.64;95.02
80186;BME280;69904;52.122;5.422;2024-01-15T06:50:45;100182.59;;;0.59;94.91
80186;BME280;69904;52.122;5.422;2024-01-15T06:53:11;100187.34;;;0.55;95.14
80186;BME280;69904;52.122;5.422;2024-01-15T06:55:38;100189.72;;;0.58;95.31
80186;BME280;69904;52.122;5.422;2024-01-15T06:58:05;100186.50;;;0.55;95.33
80186;BME280;69904;52.122;5.422;2024-01-15T07:00:31;100181.38;;;0.53;95.29
80186;BME280;69904;52.122;5.422;2024-01-15T07:02:58;100178.03;;;0.51;95.51
80186;BME280;69904;52.122;5.422;2024-01-15T07:05:25;100178.03;;;0.51;95.28
80186;BME280;69904;52.122;5.422;2024-01-15T07:07:51;100167.53;;;0.50;95.81
80186;BME280;69904;52.122;5.422;2024-01-15T07:10:18;100176.47;;;0.49;95.70
80186;BME280;69904;52.122;5.422;2024-01-15T07:12:44;100166.69;;;0.49;95.79
80186;BME280;69904;52.122;5.422;2024-01-15T07:15:11;100177.03;;;0.52;95.68
80186;BME280;69904;52.122;5.422;2024-01-15T07:17:37;100177.72;;;0.54;95.94
80186;BME280;69904;52.122;5.422;2024-01-15T07:20:07;100201.19;;;0.59;96.08
80186;BME280;69904;52.122;5.422;2024-01-15T07:22:37;100226.84;;;0.68;96.04
80186;BME280;69904;52.122;5.422;2024-01-15T07:25:04;100231.44;;;0.66;96.05
80186;BME280;69904;52.122;5.422;2024-01-15T07:27:31;100226.00;;;0.67;96.05
80186;BME280;69904;52.122;5.422;2024-01-15T07:29:58;100208.75;;;0.71;95.90
80186;BME280;69904;52.122;5.422;2024-01-15T07:32:28;100201.13;;;0.68;95.80
80186;BME280;69904;52.122;5.422;2024-01-15T07:34:55;100203.06;;;0.66;95.76
80186;BME280;69904;52.122;5.422;2024-01-15T07:37:21;100193.16;;;0.68;95.70
80186;BME280;69904;52.122;5.422;2024-01-15T07:39:49;100194.41;;;0.64;95.58
80186;BME280;69904;52.122;5.422;2024-01-15T07:42:16;100186.44;;;0.64;95.73
80186;BME280;69904;52.122;5.422;2024-01-15T07:44:42;100185.47;;;0.65;95.72
80186;BME280;69904;52.122;5.422;2024-01-15T07:47:09;100187.00;;;0.68;95.66
80186;BME280;69904;52.122;5.422;2024-01-15T07:49:36;100200.41;;;0.66;95.81
80186;BME280;69904;52.122;5.422;2024-01-15T07:52:03;100209.91;;;0.69;95.63
80186;BME280;69904;52.122;5.422;2024-01-15T07:54:31;100216.28;;;0.76;95.53
80186;BME280;69904;52.122;5.422;2024-01-15T07:57:00;100208.16;;;0.77;95.73
80186;BME280;69904;52.122;5.422;2024-01-15T07:59:27;100211.53;;;0.79;95.69
80186;BME280;69904;52.122;5.422;2024-01-15T08:01:54;100202.47;;;0.72;95.47
80186;BME280;69904;52.122;5.422;2024-01-15T08:04:21;100211.81;;;0.76;95.44
80186;BME280;69904;52.122;5.422;2024-01-15T08:06:50;100210.69;;;0.79;95.46
80186;BME280;69904;52.122;5.422;2024-01-15T08:09:17;100201.31;;;0.75;95.28
80186;BME280;69904;52.122;5.422;2024-01-15T08:11:43;100195.50;;;0.71;95.11
80186;BME280;69904;52.122;5.422;2024-01-15T08:14:10;100185.47;;;0.65;95.20
80186;BME280;69904;52.122;5.422;2024-01-15T08:16:37;100184.09;;;0.61;95.26
80186;BME280;69904;52.122;5.422;2024-01-15T08:19:04;100183.56;;;0.58;95.26
80186;BME280;69904;52.122;5.422;2024-01-15T08:21:31;100187.22;;;0.57;95.34
80186;BME280;69904;52.122;5.422;2024-01-15T08:24:02;100194.19;;;0.58;95.55
80186;BME280;69904;52.122;5.422;2024-01-15T08:26:29;100196.28;;;0.54;95.56
80186;BME280;69904;52.122;5.422;2024-01-15T08:28:56;100198.81;;;0.56;95.57
80186;BME280;69904;52.122;5.422;2024-01-15T08:31:22;100207.28;;;0.59;95.60
80186;BME280;69904;52.122;5.422;2024-01-15T08:33:49;100218.16;;;0.66;95.73
80186;BME280;69904;52.122;5.422;2024-01-15T08:36:16;100214.06;;;0.71;95.54
80186;BME280;69904;52.122;5.422;2024-01-15T08:38:43;100208.47;;;0.74;95.86
80186;BME280;69904;52.122;5.422;2024-01-15T08:41:09;100192.97;;;0.70;95.71
80186;BME280;69904;52.122;5.422;2024-01-15T08:43:36;100194.66;;;0.71;95.58
80186;BME280;69904;52.122;5.422;2024-01-15T08:46:03;100205.50;;;0.77;95.66
80186;BME280;69904;52.122;5.422;2024-01-15T08:48:30;100198.44;;;0.86;95.57
80186;BME280;69904;52.122;5.422;2024-01-15T08:50:56;100197.25;;;0.98;95.51
80186;BME280;69904;52.122;5.422;2024-01-15T08:53:23;100201.63;;;1.07;95.41
80186;BME280;69904;52.122;5.422;2024-01-15T08:55:49;100199.44;;;1.03;95.09
80186;BME280;69904;52.122;5.422;2024-01-15T08:58:16;100198.59;;;1.02;94.99
80186;BME280;69904;52.122;5.422;2024-01-15T09:00:42;100214.53;;;1.02;95.08
80186;BME280;69904;52.122;5.422;2024-01-15T09:03:09;100209.16;;;0.94;95.04
80186;BME280;69904;52.122;5.422;2024-01-15T09:05:35;100209.31;;;0.93;94.84
80186;BME280;69904;52.122;5.422;2024-01-15T09:08:03;100210.00;;;0.95;94.69
80186;BME280;69904;52.122;5.422;2024-01-15T09:10:29;100221.16;;;0.98;94.73
80186;BME280;69904;52.122;5.422;2024-01-15T09:12:56;100222.50;;;1.02;94.86
80186;BME280;69904;52.122;5.422;2024-01-15T09:15:22;100235.38;;;1.07;94.93
80186;BME280;69904;52.122;5.422;2024-01-15T09:17:49;100234.53;;;1.06;94.73
80186;BME280;69904;52.122;5.422;2024-01-15T09:20:16;100221.31;;;0.97;94.71
80186;BME280;69904;52.122;5.422;2024-01-15T09:22:42;100210.00;;;0.95;94.58
80186;BME280;69904;52.122;5.422;2024-01-15T09:25:09;100206.19;;;0.97;94.58
80186;BME280;69904;52.122;5.422;2024-01-15T09:27:36;100208.66;;;0.91;94.58
80186;BME280;69904;52.122;5.422;2024-01-15T09:30:04;100211.69;;;0.96;94.39
80186;BME280;69904;52.122;5.422;2024-01-15T09:32:31;100212.94;;;0.92;94.43
80186;BME280;69904;52.122;5.422;2024-01-15T09:34:59;100211.72;;;0.86;94.31
80186;BME280;69904;52.122;5.422;2024-01-15T09:37:25;100209.78;;;0.88;94.37
80186;BME280;69904;52.122;5.422;2024-01-15T09:40:12;100215.78;;;0.90;94.45
80186;BME280;69904;52.122;5.422;2024-01-15T09:42:41;100217.00;;;0.96;94.33
80186;BME280;69904;52.122;5.422;2024-01-15T09:45:09;100208.81;;;1.07;94.52
80186;BME280;69904;52.122;5.422;2024-01-15T09:47:37;100216.06;;;1.05;94.21
80186;BME280;69904;52.122;5.422;2024-01-15T09:50:08;100218.13;;;0.93;94.23
80186;BME280;69904;52.122;5.422;2024-01-15T09:52:36;100209.91;;;0.87;94.13
80186;BME280;69904;52.122;5.422;2024-01-15T09:55:03;100209.69;;;0.80;94.37
80186;BME280;69904;52.122;5.422;2024-01-15T09:57:32;100214.78;;;0.73;94.48
80186;BME280;69904;52.122;5.422;2024-01-15T09:59:59;100214.91;;;0.72;94.44
80186;BME280;69904;52.122;5.422;2024-01-15T10:02:30;100209.75;;;0.70;94.63
80186;BME280;69904;52.122;5.422;2024-01-15T10:04:57;100219.38;;;0.71;94.64
80186;BME280;69904;52.122;5.422;2024-01-15T10:07:25;100220.94;;;0.74;94.87
80186;BME280;69904;52.122;5.422;2024-01-15T10:09:52;100225.84;;;0.87;95.10
80186;BME280;69904;52.122;5.422;2024-01-15T10:12:21;100237.50;;;1.21;94.87
80186;BME280;69904;52.122;5.422;2024-01-15T10:14:47;100231.34;;;1.38;94.77
80186;BME280;69904;52.122;5.422;2024-01-15T10:17:15;100205.75;;;1.19;94.40
80186;BME280;69904;52.122;5.422;2024-01-15T10:19:42;100214.63;;;1.10;94.49
80186;BME280;69904;52.122;5.422;2024-01-15T10:22:14;100213.25;;;1.24;94.50
80186;BME280;69904;52.122;5.422;2024-01-15T10:24:42;100220.03;;;1.62;94.41
80186;BME280;69904;52.122;5.422;2024-01-15T10:27:09;100233.28;;;1.80;94.04
80186;BME280;69904;52.122;5.422;2024-01-15T10:29:36;100240.78;;;1.58;93.82
80186;BME280;69904;52.122;5.422;2024-01-15T10:32:06;100234.88;;;1.47;94.00
80186;BME280;69904;52.122;5.422;2024-01-15T10:34:37;100230.13;;;1.33;93.94
80186;BME280;69904;52.122;5.422;2024-01-15T10:37:07;100224.56;;;1.26;93.94
80186;BME280;69904;52.122;5.422;2024-01-15T10:39:33;100224.72;;;1.24;93.94
80186;BME280;69904;52.122;5.422;2024-01-15T10:41:59;100220.56;;;1.22;93.66
80186;BME280;69904;52.122;5.422;2024-01-15T10:44:26;100213.47;;;1.31;93.84
80186;BME280;69904;52.122;5.422;2024-01-15T10:46:54;100222.66;;;1.54;93.97
80186;BME280;69904;52.122;5.422;2024-01-15T10:49:22;100223.41;;;1.98;93.96
80186;BME280;69904;52.122;5.422;2024-01-15T10:51:57;100221.03;;;2.13;93.76
80186;BME280;69904;52.122;5.422;2024-01-15T10:54:26;100219.63;;;2.00;93.48
80186;BME280;69904;52.122;5.422;2024-01-15T10:56:53;100216.91;;;2.26;93.40
80186;BME280;69904;52.122;5.422;2024-01-15T10:59:22;100221.53;;;2.58;93.06
80186;BME280;69904;52.122;5.422;2024-01-15T11:01:50;100233.16;;;2.49;92.77
80186;BME280;69904;52.122;5.422;2024-01-15T11:04:17;100238.78;;;2.38;92.69
80186;BME280;69904;52.122;5.422;2024-01-15T11:06:45;100240.09;;;2.34;92.75
80186;BME280;69904;52.122;5.422;2024-01-15T11:09:13;100239.75;;;2.37;92.61
80186;BME280;69904;52.122;5.422;2024-01-15T11:11:43;100242.91;;;2.32;92.48
80186;BME280;69904;52.122;5.422;2024-01-15T11:14:10;100254.34;;;2.25;92.38
80186;BME280;69904;52.122;5.422;2024-01-15T11:16:57;100257.97;;;2.16;92.38
80186;BME280;69904;52.122;5.422;2024-01-15T11:22:07;100257.97;;;2.16;92.36
80186;BME280;69904;52.122;5.422;2024-01-15T11:24:39;100258.22;;;2.04;92.14
80186;BME280;69904;52.122;5.422;2024-01-15T11:27:08;100261.56;;;2.06;92.05
80186;BME280;69904;52.122;5.422;2024-01-15T11:29:36;100254.56;;;2.05;91.93
80186;BME280;69904;52.122;5.422;2024-01-15T11:32:07;100256.13;;;2.16;91.91
80186;BME280;69904;52.122;5.422;2024-01-15T11:34:56;100242.78;;;2.42;91.80
80186;BME280;69904;52.122;5.422;2024-01-15T11:37:26;100237.66;;;3.63;91.62
80186;BME280;69904;52.122;5.422;2024-01-15T11:39:55;100242.09;;;4.11;89.93
80186;BME280;69904;52.122;5.422;2024-01-15T11:42:23;100237.19;;;3.52;88.79
80186;BME280;69904;52.122;5.422;2024-01-15T11:44:50;100247.16;;;3.17;88.16
80186;BME280;69904;52.122;5.422;2024-01-15T11:47:33;100250.06;;;4.28;87.92
80186;BME280;69904;52.122;5.422;2024-01-15T11:50:06;100250.97;;;4.04;86.67
80186;BME280;69904;52.122;5.422;2024-01-15T11:52:38;100253.38;;;3.50;86.41
80186;BME280;69904;52.122;5.422;2024-01-15T11:55:30;100259.34;;;3.28;86.42
80186;BME280;69904;52.122;5.422;2024-01-15T11:58:01;100262.84;;;3.20;86.73
80186;BME280;69904;52.122;5.422;2024-01-15T12:00:28;100257.00;;;3.09;86.48
80186;BME280;69904;52.122;5.422;2024-01-15T12:02:54;100254.81;;;3.04;86.84
80186;BME280;69904;52.122;5.422;2024-01-15T12:05:22;100245.69;;;3.31;86.76
80186;BME280;69904;52.122;5.422;2024-01-15T12:07:49;100249.16;;;3.80;86.45
80186;BME280;69904;52.122;5.422;2024-01-15T12:10:18;100262.53;;;3.48;85.61
80186;BME280;69904;52.122;5.422;2024-01-15T12:12:58;100268.84;;;3.22;85.59
80186;BME280;69904;52.122;5.422;2024-01-15T12:15:28;100278.28;;;3.01;86.10
80186;BME280;69904;52.122;5.422;2024-01-15T12:17:57;100276.94;;;2.96;86.42
80186;BME280;69904;52.122;5.422;2024-01-15T12:20:31;100285.59;;;2.90;86.50
80186;BME280;69904;52.122;5.422;2024-01-15T12:22:58;100293.56;;;2.82;87.08
80186;BME280;69904;52.122;5.422;2024-01-15T12:25:31;100302.84;;;2.78;87.30
80186;BME280;69904;52.122;5.422;2024-01-15T12:27:58;100297.88;;;2.75;87.55
80186;BME280;69904;52.122;5.422;2024-01-15T12:30:29;100298.19;;;2.72;87.54
80186;BME280;69904;52.122;5.422;2024-01-15T12:32:58;100301.03;;;2.79;87.94
80186;BME280;69904;52.122;5.422;2024-01-15T12:35:24;100303.88;;;2.77;88.10
80186;BME280;69904;52.122;5.422;2024-01-15T12:37:56;100313.97;;;2.66;87.94
80186;BME280;69904;52.122;5.422;2024-01-15T12:40:23;100317.59;;;2.57;88.36
80186;BME280;69904;52.122;5.422;2024-01-15T12:42:49;100328.91;;;2.50;88.27
80186;BME280;69904;52.122;5.422;2024-01-15T12:45:17;100324.84;;;2.46;88.40
80186;BME280;69904;52.122;5.422;2024-01-15T12:47:44;100322.16;;;2.38;88.40
80186;BME280;69904;52.122;5.422;2024-01-15T12:50:12;100317.47;;;2.32;88.56
80186;BME280;69904;52.122;5.422;2024-01-15T12:52:45;100322.41;;;2.27;88.68
80186;BME280;69904;52.122;5.422;2024-01-15T12:55:13;100314.91;;;2.23;88.72
80186;BME280;69904;52.122;5.422;2024-01-15T12:57:40;100324.72;;;2.22;88.64
80186;BME280;69904;52.122;5.422;2024-01-15T13:00:07;100315.28;;;2.28;88.83
80186;BME280;69904;52.122;5.422;2024-01-15T13:02:41;100317.44;;;2.24;88.87
80186;BME280;69904;52.122;5.422;2024-01-15T13:05:09;100318.03;;;2.18;89.01